createdAt,value
2024-01-09T00:02:12.894Z,102217.72
2024-01-09T00:04:40.463Z,102223.06
2024-01-09T00:07:07.828Z,102225.66
2024-01-09T00:09:35.969Z,102219.19
2024-01-09T00:12:03.959Z,102229.41
2024-01-09T00:14:31.471Z,102217.03
2024-01-09T00:16:59.206Z,102223.97
2024-01-09T00:19:27.336Z,102238.00
2024-01-09T00:21:57.171Z,102237.22
2024-01-09T00:24:24.714Z,102229.91
2024-01-09T00:26:52.332Z,102229.78
2024-01-09T00:29:21.373Z,102237.03
2024-01-09T00:31:48.967Z,102229.44
2024-01-09T00:34:16.686Z,102222.47
2024-01-09T00:36:45.624Z,102223.53
2024-01-09T00:39:13.139Z,102227.66
2024-01-09T00:41:40.525Z,102240.91
2024-01-09T00:44:07.940Z,102238.50
2024-01-09T00:46:35.443Z,102231.31
2024-01-09T00:49:03.179Z,102240.38
2024-01-09T00:51:30.849Z,102235.78
2024-01-09T00:53:58.484Z,102220.63
2024-01-09T00:56:26.075Z,102223.63
2024-01-09T00:58:53.553Z,102222.94
2024-01-09T01:01:21.087Z,102228.78
2024-01-09T01:03:48.961Z,102228.19
2024-01-09T01:06:16.708Z,102225.94
2024-01-09T01:08:44.362Z,102231.19
2024-01-09T01:11:11.888Z,102227.84
2024-01-09T01:13:39.310Z,102233.19
2024-01-09T01:16:06.937Z,102240.56
2024-01-09T01:18:34.550Z,102234.41
2024-01-09T01:21:02.116Z,102241.69
2024-01-09T01:23:29.795Z,102227.47
2024-01-09T01:25:57.425Z,102232.91
2024-01-09T01:28:25.053Z,102231.34
2024-01-09T01:30:52.713Z,102232.66
2024-01-09T01:33:20.276Z,102223.19
2024-01-09T01:35:47.845Z,102230.88
2024-01-09T01:38:15.501Z,102227.78
2024-01-09T01:40:43.208Z,102231.56
2024-01-09T01:43:10.836Z,102247.06
2024-01-09T01:45:38.352Z,102237.34
2024-01-09T01:48:06.799Z,102243.63
2024-01-09T01:50:35.592Z,102235.00
2024-01-09T01:53:05.619Z,102236.72
2024-01-09T01:55:34.700Z,102228.78
2024-01-09T01:58:04.004Z,102235.31
2024-01-09T02:00:32.364Z,102236.78
2024-01-09T02:03:00.148Z,102235.00
2024-01-09T02:05:30.713Z,102236.09
2024-01-09T02:07:59.294Z,102235.03
2024-01-09T02:10:26.805Z,102228.31
2024-01-09T02:12:55.352Z,102229.91
2024-01-09T02:15:22.939Z,102237.44
2024-01-09T02:17:50.955Z,102236.19
2024-01-09T02:20:22.408Z,102219.25
2024-01-09T02:22:51.115Z,102228.19
2024-01-09T02:25:18.684Z,102232.13
2024-01-09T02:28:03.038Z,102226.22
2024-01-09T02:30:31.534Z,102223.66
2024-01-09T02:32:59.236Z,102233.44
2024-01-09T02:35:27.215Z,102214.47
2024-01-09T02:37:54.917Z,102215.16
2024-01-09T02:40:23.813Z,102206.31
2024-01-09T02:42:52.509Z,102215.72
2024-01-09T02:45:19.979Z,102206.59
2024-01-09T02:47:48.513Z,102206.13
2024-01-09T02:50:16.248Z,102206.47
2024-01-09T02:52:43.839Z,102196.06
2024-01-09T02:55:11.340Z,102196.28
2024-01-09T02:57:41.684Z,102195.06
2024-01-09T03:00:10.393Z,102188.84
2024-01-09T03:02:38.694Z,102191.16
2024-01-09T03:05:08.333Z,102188.59
2024-01-09T03:07:36.245Z,102191.69
2024-01-09T03:10:04.266Z,102180.00
2024-01-09T03:12:31.832Z,102179.22
2024-01-09T03:14:59.375Z,102179.28
2024-01-09T03:17:27.066Z,102188.44
2024-01-09T03:19:54.579Z,102183.84
2024-01-09T03:22:21.949Z,102179.28
2024-01-09T03:24:49.360Z,102174.59
2024-01-09T03:27:16.804Z,102173.69
2024-01-09T03:29:44.323Z,102175.47
2024-01-09T03:32:11.860Z,102173.53
2024-01-09T03:34:43.299Z,102174.22
2024-01-09T03:37:11.327Z,102166.00
2024-01-09T03:39:38.843Z,102163.75
2024-01-09T03:42:06.416Z,102161.59
2024-01-09T03:44:34.159Z,102158.91
2024-01-09T03:47:01.712Z,102150.94
2024-01-09T03:49:29.308Z,102154.94
2024-01-09T03:51:58.904Z,102166.00
2024-01-09T03:54:26.344Z,102161.31
2024-01-09T03:56:53.725Z,102162.53
2024-01-09T03:59:21.110Z,102158.19
2024-01-09T04:01:48.588Z,102158.66
2024-01-09T04:04:15.917Z,102151.88
2024-01-09T04:06:45.841Z,102146.41
2024-01-09T04:09:13.632Z,102143.31
2024-01-09T04:11:48.286Z,102135.41
2024-01-09T04:14:16.154Z,102137.88
2024-01-09T04:16:49.910Z,102133.72
2024-01-09T04:19:17.522Z,102141.34
2024-01-09T04:21:45.053Z,102139.78
2024-01-09T04:24:12.391Z,102134.75
2024-01-09T04:26:39.955Z,102136.09
2024-01-09T04:29:07.560Z,102140.84
2024-01-09T04:31:35.086Z,102136.38
2024-01-09T04:34:02.741Z,102130.28
2024-01-09T04:36:30.242Z,102132.84
2024-01-09T04:39:00.437Z,102123.25
2024-01-09T04:41:27.919Z,102136.66
2024-01-09T04:43:55.621Z,102127.38
2024-01-09T04:46:23.060Z,102126.72
2024-01-09T04:48:50.629Z,102119.13
2024-01-09T04:51:18.111Z,102120.25
2024-01-09T04:53:45.469Z,102111.75
2024-01-09T04:56:13.806Z,102124.38
2024-01-09T04:58:41.299Z,102131.31
2024-01-09T05:01:12.565Z,102129.84
2024-01-09T05:03:40.296Z,102125.50
2024-01-09T05:06:07.969Z,102123.59
2024-01-09T05:08:35.772Z,102123.69
2024-01-09T05:11:03.815Z,102129.31
2024-01-09T05:13:32.410Z,102123.97
2024-01-09T05:15:59.930Z,102120.91
2024-01-09T05:18:27.305Z,102111.63
2024-01-09T05:20:54.866Z,102119.69
2024-01-09T05:23:22.393Z,102119.44
2024-01-09T05:25:49.822Z,102114.44
2024-01-09T05:28:17.361Z,102114.66
2024-01-09T05:30:44.981Z,102107.63
2024-01-09T05:33:12.853Z,102111.22
2024-01-09T05:35:40.470Z,102122.16
2024-01-09T05:38:14.946Z,102108.75
2024-01-09T05:40:47.768Z,102112.66
2024-01-09T05:43:15.442Z,102109.09
2024-01-09T05:45:42.997Z,102109.28
2024-01-09T05:48:10.797Z,102112.22
2024-01-09T05:50:38.436Z,102107.53
2024-01-09T05:53:05.959Z,102103.16
2024-01-09T05:55:33.359Z,102099.72
2024-01-09T05:58:00.626Z,102105.94
2024-01-09T06:00:28.017Z,102097.81
2024-01-09T06:02:55.471Z,102101.72
2024-01-09T06:05:23.056Z,102090.88
2024-01-09T06:07:50.727Z,102092.78
2024-01-09T06:10:18.311Z,102106.28
2024-01-09T06:12:45.886Z,102104.06
2024-01-09T06:15:13.257Z,102099.03
2024-01-09T06:17:40.917Z,102093.25
2024-01-09T06:20:09.047Z,102103.63
2024-01-09T06:22:36.494Z,102101.34
2024-01-09T06:25:04.332Z,102099.91
2024-01-09T06:27:31.687Z,102089.63
2024-01-09T06:29:59.167Z,102100.47
2024-01-09T06:32:26.842Z,102088.19
2024-01-09T06:34:54.423Z,102098.63
2024-01-09T06:37:21.923Z,102104.09
2024-01-09T06:39:49.393Z,102100.94
2024-01-09T06:42:17.188Z,102100.75
2024-01-09T06:44:44.779Z,102110.88
2024-01-09T06:47:12.346Z,102101.41
2024-01-09T06:49:40.025Z,102112.78
2024-01-09T06:52:07.648Z,102104.03
2024-01-09T06:54:35.042Z,102100.81
2024-01-09T06:57:02.446Z,102097.22
2024-01-09T06:59:30.056Z,102103.69
2024-01-09T07:01:57.604Z,102098.63
2024-01-09T07:04:25.552Z,102098.34
2024-01-09T07:06:53.419Z,102105.75
2024-01-09T07:09:21.065Z,102108.53
2024-01-09T07:11:48.666Z,102098.75
2024-01-09T07:14:16.277Z,102104.09
2024-01-09T07:16:43.877Z,102103.44
2024-01-09T07:19:11.526Z,102102.44
2024-01-09T07:21:39.109Z,102104.63
2024-01-09T07:24:06.778Z,102102.53
2024-01-09T07:26:40.918Z,102106.56
2024-01-09T07:29:09.430Z,102099.97
2024-01-09T07:31:36.988Z,102104.09
2024-01-09T07:34:04.901Z,102111.22
2024-01-09T07:36:32.624Z,102103.38
2024-01-09T07:39:00.081Z,102106.38
2024-01-09T07:41:27.882Z,102104.25
2024-01-09T07:43:59.426Z,102111.41
2024-01-09T07:46:28.126Z,102106.47
2024-01-09T07:48:55.794Z,102101.59
2024-01-09T07:51:23.368Z,102105.63
2024-01-09T07:53:51.003Z,102109.03
2024-01-09T07:56:20.109Z,102113.84
2024-01-09T07:58:47.918Z,102110.28
2024-01-09T08:01:16.666Z,102111.25
2024-01-09T08:03:44.374Z,102107.59
2024-01-09T08:06:16.473Z,102113.63
2024-01-09T08:08:47.268Z,102107.28
2024-01-09T08:11:17.827Z,102104.63
2024-01-09T08:13:45.570Z,102105.34
2024-01-09T08:16:13.173Z,102105.47
2024-01-09T08:18:40.966Z,102110.47
2024-01-09T08:21:08.660Z,102112.25
2024-01-09T08:23:37.025Z,102106.69
2024-01-09T08:26:04.952Z,102106.16
2024-01-09T08:28:32.537Z,102117.88
2024-01-09T08:31:00.119Z,102118.44
2024-01-09T08:33:32.042Z,102121.06
2024-01-09T08:36:00.334Z,102121.28
2024-01-09T08:38:27.991Z,102119.41
2024-01-09T08:40:57.530Z,102124.31
2024-01-09T08:43:25.548Z,102127.66
2024-01-09T08:45:54.723Z,102120.81
2024-01-09T08:48:23.855Z,102116.69
2024-01-09T08:50:51.953Z,102118.41
2024-01-09T08:53:19.621Z,102115.84
2024-01-09T08:55:47.199Z,102118.31
2024-01-09T08:58:14.750Z,102115.13
2024-01-09T09:00:42.365Z,102121.19
2024-01-09T09:03:10.110Z,102123.88
2024-01-09T09:05:38.043Z,102122.75
2024-01-09T09:08:05.835Z,102119.28
2024-01-09T09:10:33.393Z,102117.38
2024-01-09T09:13:00.792Z,102122.38
2024-01-09T09:15:28.270Z,102124.75
2024-01-09T09:17:56.402Z,102129.63
2024-01-09T09:20:24.288Z,102124.38
2024-01-09T09:22:52.933Z,102131.97
2024-01-09T09:25:20.540Z,102134.53
2024-01-09T09:27:48.188Z,102126.44
2024-01-09T09:30:15.972Z,102124.59
2024-01-09T09:32:43.606Z,102130.97
2024-01-09T09:35:11.349Z,102122.47
2024-01-09T09:37:38.910Z,102124.28
2024-01-09T09:40:06.645Z,102122.78
2024-01-09T09:42:36.658Z,102122.69
2024-01-09T09:45:10.706Z,102125.59
2024-01-09T09:47:40.182Z,102129.88
2024-01-09T09:50:11.403Z,102129.13
2024-01-09T09:52:43.589Z,102134.06
2024-01-09T09:55:11.326Z,102123.06
2024-01-09T09:57:39.157Z,102135.31
2024-01-09T10:00:10.721Z,102133.13
2024-01-09T10:02:52.433Z,102126.00
2024-01-09T10:05:20.720Z,102134.16
2024-01-09T10:07:51.523Z,102135.13
2024-01-09T10:10:21.714Z,102141.22
2024-01-09T10:12:49.715Z,102134.72
2024-01-09T10:15:19.072Z,102139.44
2024-01-09T10:17:47.586Z,102141.09
2024-01-09T10:20:17.193Z,102142.16
2024-01-09T10:22:45.024Z,102147.88
2024-01-09T10:25:14.446Z,102140.50
2024-01-09T10:27:42.441Z,102141.31
2024-01-09T10:30:11.756Z,102137.53
2024-01-09T10:32:45.006Z,102137.75
2024-01-09T10:35:14.882Z,102141.56
2024-01-09T10:37:45.816Z,102132.63
2024-01-09T10:40:14.279Z,102132.50
2024-01-09T10:42:48.775Z,102129.03
2024-01-09T10:45:18.275Z,102127.78
2024-01-09T10:47:46.994Z,102117.97
2024-01-09T10:50:16.930Z,102126.59
2024-01-09T10:52:45.990Z,102115.56
2024-01-09T10:55:14.088Z,102122.59
2024-01-09T10:57:42.712Z,102123.53
2024-01-09T11:00:12.963Z,102113.94
2024-01-09T11:02:41.631Z,102116.75
2024-01-09T11:05:12.214Z,102112.22
2024-01-09T11:07:44.153Z,102118.16
2024-01-09T11:10:17.792Z,102117.97
2024-01-09T11:12:50.147Z,102117.13
2024-01-09T11:15:26.386Z,102114.91
2024-01-09T11:17:59.505Z,102112.25
2024-01-09T11:20:28.641Z,102110.84
2024-01-09T11:22:56.345Z,102113.16
2024-01-09T11:25:25.741Z,102114.44
2024-01-09T11:27:55.041Z,102106.53
2024-01-09T11:30:34.616Z,102107.44
2024-01-09T11:33:33.927Z,102112.50
2024-01-09T11:36:06.576Z,102102.28
2024-01-09T11:38:35.476Z,102100.09
2024-01-09T11:41:07.391Z,102098.03
2024-01-09T11:44:03.862Z,102093.84
2024-01-09T11:46:36.844Z,102089.31
2024-01-09T11:49:06.658Z,102089.00
2024-01-09T11:51:35.917Z,102094.06
2024-01-09T11:54:05.955Z,102090.38
2024-01-09T11:56:33.894Z,102089.50
2024-01-09T11:59:02.294Z,102084.13
2024-01-09T12:01:30.115Z,102095.44
2024-01-09T12:03:58.654Z,102080.47
2024-01-09T12:06:30.398Z,102072.31
2024-01-09T12:08:59.180Z,102079.34
2024-01-09T12:11:26.733Z,102074.50
2024-01-09T12:14:04.138Z,102077.03
2024-01-09T12:16:33.173Z,102079.84
2024-01-09T12:19:02.558Z,102075.78
2024-01-09T12:21:33.076Z,102072.41
2024-01-09T12:24:19.564Z,102066.69
2024-01-09T12:26:50.497Z,102061.59
2024-01-09T12:29:18.506Z,102052.06
2024-01-09T12:31:46.628Z,102045.16
2024-01-09T12:34:14.404Z,102041.97
2024-01-09T12:36:42.066Z,102041.13
2024-01-09T12:39:14.101Z,102032.66
2024-01-09T12:41:42.389Z,102032.16
2024-01-09T12:44:11.186Z,102031.88
2024-01-09T12:46:42.301Z,102033.25
2024-01-09T12:49:10.036Z,102042.91
2024-01-09T12:51:37.588Z,102039.03
2024-01-09T12:54:05.030Z,102032.44
2024-01-09T12:56:32.586Z,102025.28
2024-01-09T12:59:00.090Z,102031.41
2024-01-09T13:01:29.814Z,102025.38
2024-01-09T13:03:59.480Z,102023.66
2024-01-09T13:06:27.491Z,102017.38
2024-01-09T13:08:55.298Z,102023.09
2024-01-09T13:11:23.026Z,102022.81
2024-01-09T13:13:50.624Z,102022.88
2024-01-09T13:16:19.493Z,102022.06
2024-01-09T13:18:47.249Z,102016.38
2024-01-09T13:21:14.803Z,102012.94
2024-01-09T13:23:49.452Z,102014.63
2024-01-09T13:26:20.316Z,102012.59
2024-01-09T13:31:19.522Z,102017.56
2024-01-09T13:33:47.372Z,102011.94
2024-01-09T13:36:17.192Z,102015.97
2024-01-09T13:38:46.738Z,102009.34
2024-01-09T13:41:16.875Z,102004.19
2024-01-09T13:43:44.837Z,102000.88
2024-01-09T13:46:12.992Z,102006.13
2024-01-09T13:48:42.088Z,102007.25
2024-01-09T13:51:49.872Z,102005.22
2024-01-09T13:53:58.015Z,102000.75
2024-01-09T13:56:27.699Z,101995.72
2024-01-09T13:58:56.063Z,102003.56
2024-01-09T14:01:30.464Z,101996.56
2024-01-09T14:04:06.675Z,101997.28
2024-01-09T14:06:34.537Z,101995.00
2024-01-09T14:09:02.216Z,101999.25
2024-01-09T14:11:29.790Z,101990.13
2024-01-09T14:13:58.821Z,101994.81
2024-01-09T14:16:26.429Z,102001.97
2024-01-09T14:18:54.474Z,101993.69
2024-01-09T14:21:21.976Z,101995.56
2024-01-09T14:23:50.249Z,101993.72
2024-01-09T14:26:21.878Z,101997.28
2024-01-09T14:28:49.777Z,101984.78
2024-01-09T14:31:17.344Z,101987.78
2024-01-09T14:33:44.806Z,101983.25
2024-01-09T14:36:12.377Z,101983.97
2024-01-09T14:38:40.100Z,101981.06
2024-01-09T14:41:11.776Z,101983.00
2024-01-09T14:43:42.528Z,101979.38
2024-01-09T14:46:16.887Z,101976.63
2024-01-09T14:48:44.774Z,101978.03
2024-01-09T14:51:12.278Z,101979.72
2024-01-09T14:53:39.631Z,101970.94
2024-01-09T14:56:07.105Z,101972.41
2024-01-09T14:58:35.354Z,101970.31
2024-01-09T15:01:03.246Z,101964.75
2024-01-09T15:03:30.830Z,101967.66
2024-01-09T15:05:58.430Z,101963.22
2024-01-09T15:08:26.263Z,101968.53
2024-01-09T15:10:54.739Z,101958.34
2024-01-09T15:13:22.292Z,101954.56
2024-01-09T15:15:49.895Z,101958.50
2024-01-09T15:18:17.377Z,101967.31
2024-01-09T15:20:44.807Z,101965.16
2024-01-09T15:23:13.587Z,101954.66
2024-01-09T15:25:41.672Z,101953.91
2024-01-09T15:28:09.726Z,101959.19
2024-01-09T15:30:37.385Z,101957.50
2024-01-09T15:33:09.382Z,101963.91
2024-01-09T15:35:37.960Z,101960.81
2024-01-09T15:38:06.265Z,101960.91
2024-01-09T15:40:34.019Z,101963.59
2024-01-09T15:43:01.641Z,101957.22
2024-01-09T15:45:28.958Z,101970.00
2024-01-09T15:47:58.388Z,101965.94
2024-01-09T15:50:26.142Z,101967.31
2024-01-09T15:52:53.807Z,101965.56
2024-01-09T15:55:21.445Z,101972.16
2024-01-09T15:57:49.131Z,101974.47
2024-01-09T16:00:17.916Z,101970.94
2024-01-09T16:02:45.880Z,101967.47
2024-01-09T16:05:14.229Z,101974.19
2024-01-09T16:07:41.990Z,101972.06
2024-01-09T16:10:10.344Z,101974.34
2024-01-09T16:12:38.050Z,101969.88
2024-01-09T16:15:06.077Z,101971.91
2024-01-09T16:17:34.906Z,101979.72
2024-01-09T16:20:02.956Z,101977.13
2024-01-09T16:22:31.047Z,101972.38
2024-01-09T16:24:59.373Z,101968.69
2024-01-09T16:27:26.931Z,101977.72
2024-01-09T16:29:54.421Z,101973.88
2024-01-09T16:32:23.160Z,101968.53
2024-01-09T16:34:50.983Z,101973.69
2024-01-09T16:37:18.488Z,101967.13
2024-01-09T16:39:45.937Z,101971.03
2024-01-09T16:42:17.605Z,101977.44
2024-01-09T16:44:45.177Z,101986.75
2024-01-09T16:47:12.792Z,101982.88
2024-01-09T16:49:43.445Z,101989.28
2024-01-09T16:52:11.270Z,102003.00
2024-01-09T16:54:39.399Z,101999.75
2024-01-09T16:57:07.263Z,102003.38
2024-01-09T16:59:34.794Z,101996.66
2024-01-09T17:02:03.730Z,101997.34
2024-01-09T17:04:31.666Z,102010.38
2024-01-09T17:06:59.203Z,102003.09
2024-01-09T17:09:26.531Z,102013.53
2024-01-09T17:11:53.983Z,102009.06
2024-01-09T17:14:22.985Z,102025.06
2024-01-09T17:16:53.304Z,102015.88
2024-01-09T17:19:24.479Z,102020.69
2024-01-09T17:21:52.456Z,102007.72
2024-01-09T17:24:19.983Z,102012.97
2024-01-09T17:26:47.503Z,102015.31
2024-01-09T17:29:15.008Z,102013.75
2024-01-09T17:31:44.425Z,102006.78
2024-01-09T17:34:12.529Z,102018.31
2024-01-09T17:36:40.148Z,102006.94
2024-01-09T17:39:10.088Z,102003.00
2024-01-09T17:41:40.638Z,102013.69
2024-01-09T17:44:08.726Z,102016.31
2024-01-09T17:46:40.428Z,102018.09
2024-01-09T17:49:08.307Z,102012.16
2024-01-09T17:51:40.552Z,102009.91
2024-01-09T17:54:08.222Z,102014.16
2024-01-09T17:57:10.024Z,102009.28
2024-01-09T17:59:40.235Z,102005.56
2024-01-09T18:02:07.744Z,102001.97
2024-01-09T18:04:38.468Z,102000.75
2024-01-09T18:07:10.177Z,102009.81
2024-01-09T18:09:37.937Z,102005.38
2024-01-09T18:12:06.766Z,102009.16
2024-01-09T18:14:34.326Z,102014.28
2024-01-09T18:17:02.051Z,102015.53
2024-01-09T18:19:29.917Z,102010.50
2024-01-09T18:21:59.598Z,102012.84
2024-01-09T18:24:27.402Z,102008.41
2024-01-09T18:26:57.195Z,102011.72
2024-01-09T18:29:24.949Z,102009.88
2024-01-09T18:31:56.093Z,102008.16
2024-01-09T18:34:24.209Z,102018.47
2024-01-09T18:36:52.046Z,102009.19
2024-01-09T18:39:23.275Z,102018.91
2024-01-09T18:41:58.203Z,102022.47
2024-01-09T18:44:28.095Z,102008.41
2024-01-09T18:46:56.663Z,102011.53
2024-01-09T18:49:25.802Z,102018.03
2024-01-09T18:51:54.463Z,102005.72
2024-01-09T18:54:24.892Z,102014.44
2024-01-09T18:56:52.783Z,102009.88
2024-01-09T18:59:26.029Z,102010.66
2024-01-09T19:01:58.406Z,102007.16
2024-01-09T19:04:27.592Z,102008.63
2024-01-09T19:06:55.285Z,102013.88
2024-01-09T19:09:23.755Z,102007.88
2024-01-09T19:11:51.516Z,102003.06
2024-01-09T19:14:19.627Z,102000.34
2024-01-09T19:16:47.836Z,102001.00
2024-01-09T19:19:17.236Z,102006.56
2024-01-09T19:21:46.666Z,102004.78
2024-01-09T19:24:17.389Z,102010.50
2024-01-09T19:26:46.121Z,102013.28
2024-01-09T19:29:17.133Z,102019.78
2024-01-09T19:31:44.901Z,102016.09
2024-01-09T19:34:12.964Z,102017.41
2024-01-09T19:36:45.393Z,102021.56
2024-01-09T19:39:13.197Z,102021.66
2024-01-09T19:41:40.856Z,102015.00
2024-01-09T19:44:09.098Z,102016.41
2024-01-09T19:46:41.288Z,102009.72
2024-01-09T19:49:09.030Z,102011.72
2024-01-09T19:51:37.446Z,102011.69
2024-01-09T19:54:10.902Z,102011.81
2024-01-09T19:56:40.348Z,102006.56
2024-01-09T19:59:08.717Z,102005.44
2024-01-09T20:01:36.786Z,101999.09
2024-01-09T20:04:04.606Z,102009.25
2024-01-09T20:06:32.525Z,101999.09
2024-01-09T20:09:00.155Z,102006.78
2024-01-09T20:11:31.506Z,102012.16
2024-01-09T20:14:02.596Z,102014.78
2024-01-09T20:16:30.480Z,102007.88
2024-01-09T20:18:58.623Z,102013.88
2024-01-09T20:21:29.999Z,102014.81
2024-01-09T20:23:58.165Z,102011.75
2024-01-09T20:26:33.437Z,102015.31
2024-01-09T20:29:01.024Z,102001.28
2024-01-09T20:31:31.836Z,102005.03
2024-01-09T20:33:59.743Z,102006.41
2024-01-09T20:36:27.909Z,102001.84
2024-01-09T20:38:58.695Z,102003.25
2024-01-09T20:41:28.874Z,102004.22
2024-01-09T20:43:56.599Z,101999.06
2024-01-09T20:46:24.729Z,102000.78
2024-01-09T20:48:52.291Z,102004.09
2024-01-09T20:51:19.784Z,102003.25
2024-01-09T20:53:47.250Z,101999.31
2024-01-09T20:56:15.939Z,102006.19
2024-01-09T20:58:43.609Z,102006.50
2024-01-09T21:01:11.134Z,102013.41
2024-01-09T21:03:38.842Z,102003.84
2024-01-09T21:06:08.654Z,101999.19
2024-01-09T21:08:36.189Z,102009.06
2024-01-09T21:11:03.719Z,102006.69
2024-01-09T21:13:31.401Z,102004.50
2024-01-09T21:16:00.893Z,102006.19
2024-01-09T21:18:28.589Z,102008.00
2024-01-09T21:20:57.604Z,102006.69
2024-01-09T21:23:31.835Z,102004.53
2024-01-09T21:26:05.597Z,102003.81
2024-01-09T21:28:33.127Z,102004.50
2024-01-09T21:31:00.736Z,102002.41
2024-01-09T21:33:28.436Z,102000.38
2024-01-09T21:35:56.138Z,102007.50
2024-01-09T21:38:23.808Z,102012.16
2024-01-09T21:40:57.941Z,102009.13
2024-01-09T21:43:26.875Z,102000.66
2024-01-09T21:45:54.553Z,102007.50
2024-01-09T21:48:22.205Z,102014.53
2024-01-09T21:50:49.962Z,102006.91
2024-01-09T21:53:17.587Z,102011.22
2024-01-09T21:55:45.377Z,102016.78
2024-01-09T21:58:13.918Z,102009.06
2024-01-09T22:00:41.608Z,102011.53
2024-01-09T22:03:09.316Z,102011.22
2024-01-09T22:05:37.011Z,102017.72
2024-01-09T22:08:04.829Z,102019.50
2024-01-09T22:10:33.247Z,102013.22
2024-01-09T22:13:00.891Z,102012.09
2024-01-09T22:15:28.341Z,102007.53
2024-01-09T22:17:55.853Z,102004.56
2024-01-09T22:25:54.747Z,102004.50
2024-01-09T22:28:22.325Z,102009.09
2024-01-09T22:30:50.468Z,101999.47
2024-01-09T22:33:18.845Z,102002.72
2024-01-09T22:35:47.568Z,102015.06
2024-01-09T22:38:15.437Z,102009.56
2024-01-09T22:40:43.132Z,102008.06
2024-01-09T22:43:10.832Z,102004.34
2024-01-09T22:45:38.416Z,102002.09
2024-01-09T22:48:06.107Z,102012.41
2024-01-09T22:50:33.851Z,102014.63
2024-01-09T22:53:02.253Z,102009.06
2024-01-09T22:55:29.791Z,102007.88
2024-01-09T22:57:57.184Z,102006.88
2024-01-09T23:00:26.838Z,102012.38
2024-01-09T23:02:57.450Z,102006.25
2024-01-09T23:05:26.942Z,102009.50
2024-01-09T23:07:55.263Z,102017.72
2024-01-09T23:10:23.053Z,102007.25
2024-01-09T23:12:50.512Z,102019.56
2024-01-09T23:15:18.014Z,102022.66
2024-01-09T23:17:45.671Z,102024.16
2024-01-09T23:20:15.596Z,102021.91
2024-01-09T23:22:43.417Z,102025.47
2024-01-09T23:25:12.696Z,102026.22
2024-01-09T23:27:40.335Z,102022.78
2024-01-09T23:30:08.750Z,102008.97
2024-01-09T23:32:36.494Z,102010.19
2024-01-09T23:35:04.652Z,102019.09
2024-01-09T23:37:34.696Z,102009.97
2024-01-09T23:40:02.419Z,102015.47
2024-01-09T23:42:29.984Z,102007.50
2024-01-09T23:44:57.341Z,102005.84
2024-01-09T23:47:24.904Z,102012.63
2024-01-09T23:49:52.553Z,102001.06
2024-01-09T23:52:20.156Z,102008.41
2024-01-09T23:54:48.224Z,102012.00
2024-01-09T23:57:15.860Z,102004.16
2024-01-09T23:59:43.429Z,102008.66
